createdAt,value
2023-01-21T00:01:20.789Z,0.52
2023-01-21T00:03:50.144Z,0.60
2023-01-21T00:06:18.574Z,0.55
2023-01-21T00:08:46.874Z,0.70
2023-01-21T00:11:16.863Z,0.40
2023-01-21T00:13:45.956Z,0.45
2023-01-21T00:16:14.930Z,0.45
2023-01-21T00:18:43.822Z,0.57
2023-01-21T00:21:12.220Z,0.60
2023-01-21T00:23:41.008Z,0.55
2023-01-21T00:26:12.767Z,0.73
2023-01-21T00:28:42.808Z,0.60
2023-01-21T00:31:12.582Z,0.60
2023-01-21T00:33:41.257Z,0.98
2023-01-21T00:36:11.981Z,0.70
2023-01-21T00:38:40.426Z,0.70
2023-01-21T00:41:12.175Z,0.70
2023-01-21T00:43:41.290Z,0.88
2023-01-21T00:46:10.438Z,0.70
2023-01-21T00:48:38.864Z,0.60
2023-01-21T00:51:07.405Z,0.80
2023-01-21T00:53:47.599Z,0.75
2023-01-21T00:56:16.187Z,0.80
2023-01-21T00:58:44.563Z,0.60
2023-01-21T01:01:16.591Z,0.57
2023-01-21T01:03:45.458Z,0.88
2023-01-21T01:06:19.359Z,0.65
2023-01-21T01:08:48.500Z,0.68
2023-01-21T01:11:18.472Z,0.85
2023-01-21T01:13:46.939Z,0.85
2023-01-21T01:16:16.594Z,1.00
2023-01-21T01:18:45.683Z,0.70
2023-01-21T01:21:16.920Z,0.80
2023-01-21T01:23:46.104Z,0.88
2023-01-21T01:26:17.590Z,0.50
2023-01-21T01:28:46.648Z,0.80
2023-01-21T01:31:17.890Z,0.60
2023-01-21T01:33:47.013Z,0.60
2023-01-21T01:36:26.486Z,0.77
2023-01-21T01:38:55.573Z,0.80
2023-01-21T01:41:28.239Z,0.80
2023-01-21T01:44:02.671Z,0.80
2023-01-21T01:46:38.027Z,1.00
2023-01-21T01:49:17.795Z,1.10
2023-01-21T01:51:49.582Z,1.00
2023-01-21T01:54:26.007Z,0.90
2023-01-21T01:56:59.429Z,1.00
2023-01-21T01:59:29.068Z,0.85
2023-01-21T02:02:00.123Z,1.00
2023-01-21T02:04:32.568Z,0.80
2023-01-21T02:07:01.530Z,1.00
2023-01-21T02:09:30.827Z,0.90
2023-01-21T02:12:01.271Z,0.88
2023-01-21T02:14:31.872Z,1.00
2023-01-21T02:17:11.321Z,0.70
2023-01-21T02:19:49.388Z,1.60
2023-01-21T02:22:34.232Z,2.40
2023-01-21T02:25:36.088Z,1.80
2023-01-21T02:28:04.350Z,1.80
2023-01-21T02:30:38.488Z,1.50
2023-01-21T02:33:40.214Z,1.30
2023-01-21T02:36:13.996Z,1.40
2023-01-21T02:39:05.118Z,1.40
2023-01-21T02:42:13.816Z,1.20
2023-01-21T02:44:48.574Z,1.27
2023-01-21T02:47:39.298Z,1.50
2023-01-21T02:50:20.761Z,1.30
2023-01-21T02:52:56.673Z,1.38
2023-01-21T02:55:30.356Z,1.40
2023-01-21T02:58:07.148Z,1.30
2023-01-21T03:00:55.542Z,1.50
2023-01-21T03:03:40.359Z,1.50
2023-01-21T03:06:29.350Z,1.60
2023-01-21T03:09:11.033Z,2.08
2023-01-21T03:11:39.480Z,1.60
2023-01-21T03:14:28.948Z,1.50
2023-01-21T03:17:06.271Z,1.73
2023-01-21T03:20:10.194Z,1.40
2023-01-21T03:22:39.774Z,1.70
2023-01-21T03:25:10.905Z,1.77
2023-01-21T03:27:43.392Z,1.40
2023-01-21T03:30:16.372Z,1.75
2023-01-21T03:32:48.717Z,1.60
2023-01-21T03:35:27.889Z,1.80
2023-01-21T03:38:11.111Z,1.63
2023-01-21T03:41:12.914Z,1.60
2023-01-21T03:43:41.711Z,1.98
2023-01-21T03:46:40.433Z,1.90
2023-01-21T03:49:20.725Z,2.25
2023-01-21T03:51:56.433Z,2.20
2023-01-21T03:54:25.081Z,1.90
2023-01-21T03:56:53.470Z,2.20
2023-01-21T03:59:21.780Z,2.00
2023-01-21T04:01:50.145Z,2.00
2023-01-21T04:04:18.433Z,1.95
2023-01-21T04:06:46.671Z,1.90
2023-01-21T04:09:14.993Z,1.60
2023-01-21T04:11:43.435Z,2.00
2023-01-21T04:14:11.792Z,1.70
2023-01-21T04:16:40.097Z,2.50
2023-01-21T04:19:08.379Z,3.97
2023-01-21T04:21:36.739Z,6.65
2023-01-21T04:24:05.485Z,6.70
2023-01-21T04:26:33.741Z,6.32
2023-01-21T04:29:02.213Z,5.00
2023-01-21T04:31:30.529Z,2.85
2023-01-21T04:33:58.830Z,2.60
2023-01-21T04:36:27.185Z,2.40
2023-01-21T04:38:55.476Z,2.10
2023-01-21T04:41:25.461Z,2.22
2023-01-21T04:43:53.992Z,1.88
2023-01-21T04:46:22.524Z,2.00
2023-01-21T04:48:50.880Z,1.70
2023-01-21T04:51:19.182Z,1.88
2023-01-21T04:53:47.509Z,1.95
2023-01-21T04:56:15.864Z,1.60
2023-01-21T04:58:44.147Z,1.50
2023-01-21T05:01:12.498Z,1.80
2023-01-21T05:03:40.782Z,2.00
2023-01-21T05:06:09.398Z,1.60
2023-01-21T05:08:37.708Z,1.90
2023-01-21T05:11:08.499Z,1.90
2023-01-21T05:13:36.948Z,2.03
2023-01-21T05:16:09.160Z,1.95
2023-01-21T05:18:41.610Z,1.90
2023-01-21T05:21:10.149Z,1.77
2023-01-21T05:23:38.476Z,2.10
2023-01-21T05:26:06.818Z,2.67
2023-01-21T05:28:35.138Z,2.65
2023-01-21T05:31:04.599Z,4.05
2023-01-21T05:33:34.551Z,4.07
2023-01-21T05:36:04.798Z,4.40
2023-01-21T05:38:33.168Z,4.53
2023-01-21T05:41:03.110Z,4.32
2023-01-21T05:43:31.598Z,3.85
2023-01-21T05:45:59.974Z,3.80
2023-01-21T05:48:30.311Z,3.88
2023-01-21T05:50:59.056Z,4.10
2023-01-21T05:53:28.263Z,4.38
2023-01-21T05:55:57.717Z,4.60
2023-01-21T05:58:27.046Z,5.15
2023-01-21T06:00:55.689Z,4.88
2023-01-21T06:03:23.969Z,5.95
2023-01-21T06:05:52.858Z,6.28
2023-01-21T06:08:21.363Z,6.30
2023-01-21T06:10:49.648Z,5.70
2023-01-21T06:13:18.348Z,5.93
2023-01-21T06:15:46.681Z,6.03
2023-01-21T06:18:15.124Z,4.70
2023-01-21T06:20:43.562Z,4.07
2023-01-21T06:23:11.865Z,3.85
2023-01-21T06:25:41.723Z,4.15
2023-01-21T06:28:13.518Z,3.88
2023-01-21T06:30:41.816Z,3.38
2023-01-21T06:33:10.315Z,3.15
2023-01-21T06:35:38.594Z,3.35
2023-01-21T06:38:06.898Z,3.15
2023-01-21T06:40:35.188Z,3.45
2023-01-21T06:43:03.504Z,3.20
2023-01-21T06:45:31.950Z,3.50
2023-01-21T06:48:00.625Z,3.35
2023-01-21T06:50:28.926Z,3.35
2023-01-21T06:52:57.164Z,3.20
2023-01-21T06:55:25.466Z,3.30
2023-01-21T06:57:53.882Z,3.30
2023-01-21T07:00:22.690Z,3.17
2023-01-21T07:02:50.954Z,3.30
2023-01-21T07:05:21.526Z,3.30
2023-01-21T07:07:49.779Z,3.20
2023-01-21T07:10:18.872Z,3.05
2023-01-21T07:12:47.226Z,3.05
2023-01-21T07:15:15.873Z,3.30
2023-01-21T07:17:44.294Z,3.33
2023-01-21T07:20:15.388Z,3.60
2023-01-21T07:22:43.879Z,3.53
2023-01-21T07:25:12.157Z,3.40
2023-01-21T07:27:42.627Z,3.40
2023-01-21T07:30:17.850Z,3.67
2023-01-21T07:32:47.428Z,3.40
2023-01-21T07:35:16.181Z,3.40
2023-01-21T07:37:44.912Z,3.35
2023-01-21T07:40:13.746Z,3.40
2023-01-21T07:42:42.040Z,3.42
2023-01-21T07:45:10.750Z,3.28
2023-01-21T07:47:39.138Z,3.28
2023-01-21T07:50:09.472Z,3.40
2023-01-21T07:52:37.704Z,3.45
2023-01-21T07:55:07.952Z,3.20
2023-01-21T07:57:36.872Z,3.38
2023-01-21T08:00:06.068Z,3.38
2023-01-21T08:02:34.496Z,3.17
2023-01-21T08:05:02.964Z,2.80
2023-01-21T08:07:31.269Z,3.10
2023-01-21T08:09:59.685Z,3.08
2023-01-21T08:12:28.082Z,3.25
2023-01-21T08:14:56.447Z,3.25
2023-01-21T08:17:24.767Z,2.97
2023-01-21T08:19:53.006Z,3.15
2023-01-21T08:22:21.274Z,2.60
2023-01-21T08:24:49.552Z,2.60
2023-01-21T08:27:17.801Z,2.65
2023-01-21T08:29:47.724Z,2.42
2023-01-21T08:32:16.349Z,2.90
2023-01-21T08:34:44.597Z,2.80
2023-01-21T08:37:12.943Z,2.55
2023-01-21T08:39:41.619Z,2.55
2023-01-21T08:42:09.903Z,2.72
2023-01-21T08:44:38.158Z,2.53
2023-01-21T08:47:06.493Z,2.38
2023-01-21T08:49:34.748Z,2.03
2023-01-21T08:52:03.231Z,2.40
2023-01-21T08:54:31.634Z,2.65
2023-01-21T08:56:59.902Z,2.28
2023-01-21T08:59:29.542Z,2.20
2023-01-21T09:01:58.438Z,2.30
2023-01-21T09:04:26.804Z,2.15
2023-01-21T09:06:55.092Z,2.10
2023-01-21T09:09:23.374Z,2.30
2023-01-21T09:11:53.269Z,2.15
2023-01-21T09:14:22.413Z,2.28
2023-01-21T09:16:51.688Z,2.20
2023-01-21T09:19:20.535Z,2.20
2023-01-21T09:21:48.813Z,1.98
2023-01-21T09:24:17.111Z,2.10
2023-01-21T09:26:45.666Z,1.70
2023-01-21T09:29:13.956Z,2.00
2023-01-21T09:31:42.332Z,2.03
2023-01-21T09:34:12.608Z,2.00
2023-01-21T09:36:40.973Z,1.85
2023-01-21T09:39:09.425Z,1.85
2023-01-21T09:41:40.812Z,1.92
2023-01-21T09:44:30.518Z,1.73
2023-01-21T09:47:18.448Z,1.70
2023-01-21T09:49:59.709Z,1.63
2023-01-21T09:52:40.676Z,1.75
2023-01-21T09:55:42.517Z,1.80
2023-01-21T09:58:43.198Z,1.80
2023-01-21T10:01:32.784Z,1.50
2023-01-21T10:04:49.254Z,1.60
2023-01-21T10:07:35.327Z,1.52
2023-01-21T10:10:44.270Z,1.45
2023-01-21T10:13:42.898Z,1.58
2023-01-21T10:16:29.430Z,1.60
2023-01-21T10:19:01.686Z,1.55
2023-01-21T10:21:46.658Z,1.30
2023-01-21T10:24:22.641Z,1.50
2023-01-21T10:26:54.870Z,1.27
2023-01-21T10:29:26.668Z,1.52
2023-01-21T10:32:22.118Z,1.50
2023-01-21T10:37:48.115Z,1.80
2023-01-21T10:40:44.060Z,1.58
2023-01-21T10:43:30.953Z,2.20
2023-01-21T10:46:34.799Z,2.20
2023-01-21T10:49:21.823Z,2.92
2023-01-21T10:52:00.013Z,3.38
2023-01-21T10:54:37.191Z,3.20
2023-01-21T10:57:35.130Z,3.13
2023-01-21T11:00:06.251Z,3.05
2023-01-21T11:02:35.479Z,2.80
2023-01-21T11:05:07.403Z,2.38
2023-01-21T11:07:40.934Z,2.42
2023-01-21T11:10:10.091Z,2.28
2023-01-21T11:12:38.411Z,1.90
2023-01-21T11:15:16.826Z,2.05
2023-01-21T11:17:50.668Z,2.50
2023-01-21T11:20:47.805Z,1.98
2023-01-21T11:23:33.792Z,2.00
2023-01-21T11:26:10.114Z,2.33
2023-01-21T11:28:38.595Z,1.92
2023-01-21T11:31:16.401Z,1.77
2023-01-21T11:33:45.240Z,1.65
2023-01-21T11:36:22.310Z,1.70
2023-01-21T11:39:03.390Z,1.58
2023-01-21T11:41:32.029Z,1.80
2023-01-21T11:44:18.548Z,1.90
2023-01-21T11:46:47.065Z,1.80
2023-01-21T11:49:20.888Z,1.88
2023-01-21T11:51:49.330Z,1.80
2023-01-21T11:54:21.522Z,1.70
2023-01-21T11:57:01.178Z,2.00
2023-01-21T11:59:36.912Z,2.10
2023-01-21T12:02:27.281Z,1.95
2023-01-21T12:05:00.306Z,2.15
2023-01-21T12:07:32.668Z,2.10
2023-01-21T12:10:12.965Z,2.20
2023-01-21T12:12:49.795Z,1.95
2023-01-21T12:15:32.629Z,2.45
2023-01-21T12:18:25.316Z,2.35
2023-01-21T12:21:12.378Z,1.98
2023-01-21T12:23:50.366Z,1.90
2023-01-21T12:26:42.264Z,2.13
2023-01-21T12:29:19.515Z,1.90
2023-01-21T12:32:02.372Z,1.50
2023-01-21T12:34:41.113Z,1.92
2023-01-21T12:37:15.465Z,1.67
2023-01-21T12:39:45.904Z,1.70
2023-01-21T12:42:28.175Z,1.63
2023-01-21T12:45:05.664Z,1.70
2023-01-21T12:47:41.911Z,1.70
2023-01-21T12:50:42.048Z,1.50
2023-01-21T12:53:28.363Z,1.70
2023-01-21T12:56:14.308Z,1.65
2023-01-21T12:59:00.984Z,1.80
2023-01-21T13:01:50.582Z,1.70
2023-01-21T13:04:46.524Z,1.70
2023-01-21T13:07:44.541Z,1.65
2023-01-21T13:10:37.186Z,1.88
2023-01-21T13:13:20.710Z,1.60
2023-01-21T13:15:54.996Z,1.70
2023-01-21T13:18:34.228Z,1.75
2023-01-21T13:21:17.329Z,1.58
2023-01-21T13:24:03.768Z,1.50
2023-01-21T13:26:58.354Z,1.85
2023-01-21T13:29:56.111Z,1.90
2023-01-21T13:32:30.503Z,1.63
2023-01-21T13:35:08.452Z,1.60
2023-01-21T13:38:13.072Z,1.77
2023-01-21T13:40:59.635Z,1.70
2023-01-21T13:43:41.248Z,1.55
2023-01-21T13:46:44.764Z,1.63
2023-01-21T13:49:51.080Z,1.90
2023-01-21T13:52:23.763Z,1.63
2023-01-21T13:55:16.200Z,1.58
2023-01-21T13:57:58.154Z,1.70
2023-01-21T14:01:10.043Z,1.48
2023-01-21T14:03:51.158Z,1.60
2023-01-21T14:06:46.617Z,1.60
2023-01-21T14:12:01.112Z,1.80
2023-01-21T14:14:55.317Z,1.40
2023-01-21T14:17:54.137Z,1.30
2023-01-21T14:20:40.604Z,1.48
2023-01-21T14:23:14.748Z,1.55
2023-01-21T14:26:03.851Z,1.40
2023-01-21T14:29:42.443Z,1.70
2023-01-21T14:32:16.448Z,1.80
2023-01-21T14:35:11.084Z,1.70
2023-01-21T14:37:47.963Z,1.65
2023-01-21T14:40:36.311Z,1.70
2023-01-21T14:43:04.628Z,1.92
2023-01-21T14:45:51.075Z,1.83
2023-01-21T14:48:32.627Z,1.60
2023-01-21T14:51:07.090Z,1.45
2023-01-21T14:53:49.372Z,1.77
2023-01-21T14:56:17.752Z,1.70
2023-01-21T14:58:54.919Z,1.70
2023-01-21T15:01:48.032Z,1.50
2023-01-21T15:04:27.750Z,1.42
2023-01-21T15:07:02.776Z,1.60
2023-01-21T15:09:37.209Z,1.40
2023-01-21T15:12:12.748Z,1.33
2023-01-21T15:14:42.922Z,1.40
2023-01-21T15:17:49.392Z,1.50
2023-01-21T15:20:39.737Z,1.80
2023-01-21T15:23:31.009Z,1.20
2023-01-21T15:26:13.749Z,1.05
2023-01-21T15:28:52.997Z,1.40
2023-01-21T15:31:27.024Z,1.20
2023-01-21T15:33:58.408Z,1.05
2023-01-21T15:36:31.902Z,1.30
2023-01-21T15:39:16.410Z,1.50
2023-01-21T15:41:52.315Z,1.10
2023-01-21T15:44:35.608Z,1.13
2023-01-21T15:47:25.230Z,1.23
2023-01-21T15:50:25.636Z,1.00
2023-01-21T15:52:54.451Z,1.30
2023-01-21T15:55:36.617Z,1.40
2023-01-21T15:58:19.263Z,1.13
2023-01-21T16:01:08.606Z,1.27
2023-01-21T16:04:02.215Z,1.30
2023-01-21T16:07:03.472Z,1.20
2023-01-21T16:09:50.328Z,1.17
2023-01-21T16:12:24.509Z,1.42
2023-01-21T16:15:00.641Z,1.50
2023-01-21T16:17:57.826Z,1.73
2023-01-21T16:20:26.393Z,1.73
2023-01-21T16:22:59.915Z,1.65
2023-01-21T16:25:28.647Z,1.73
2023-01-21T16:27:57.317Z,1.88
2023-01-21T16:30:31.612Z,1.85
2023-01-21T16:33:16.808Z,1.50
2023-01-21T16:38:25.668Z,1.75
2023-01-21T16:41:14.666Z,1.88
2023-01-21T16:44:01.270Z,2.00
2023-01-21T16:46:39.427Z,1.88
2023-01-21T16:49:15.663Z,2.08
2023-01-21T16:51:58.854Z,2.13
2023-01-21T16:54:28.668Z,1.73
2023-01-21T16:57:03.050Z,1.70
2023-01-21T16:59:40.088Z,2.28
2023-01-21T17:02:21.036Z,2.08
2023-01-21T17:04:50.213Z,1.90
2023-01-21T17:07:25.303Z,1.50
2023-01-21T17:10:03.228Z,2.00
2023-01-21T17:12:36.009Z,1.60
2023-01-21T17:15:30.719Z,1.65
2023-01-21T17:18:01.417Z,1.20
2023-01-21T17:20:48.832Z,1.50
2023-01-21T17:23:39.995Z,1.40
2023-01-21T17:26:34.664Z,1.30
2023-01-21T17:29:32.216Z,1.17
2023-01-21T17:32:03.403Z,1.30
2023-01-21T17:34:40.745Z,1.35
2023-01-21T17:37:46.281Z,1.30
2023-01-21T17:40:34.636Z,1.50
2023-01-21T17:43:20.471Z,1.50
2023-01-21T17:45:51.090Z,1.48
2023-01-21T17:48:32.671Z,1.40
2023-01-21T17:51:05.996Z,1.40
2023-01-21T17:53:42.956Z,1.30
2023-01-21T17:56:12.983Z,1.40
2023-01-21T17:58:53.437Z,1.45
2023-01-21T18:01:22.332Z,1.70
2023-01-21T18:03:50.663Z,1.83
2023-01-21T18:06:21.738Z,1.58
2023-01-21T18:08:51.745Z,2.00
2023-01-21T18:11:20.107Z,1.63
2023-01-21T18:13:48.716Z,1.67
2023-01-21T18:16:17.321Z,1.80
2023-01-21T18:18:46.034Z,1.85
2023-01-21T18:21:22.010Z,1.70
2023-01-21T18:23:50.888Z,1.67
2023-01-21T18:26:28.791Z,1.55
2023-01-21T18:28:57.613Z,1.55
2023-01-21T18:31:26.064Z,1.58
2023-01-21T18:33:54.444Z,2.22
2023-01-21T18:36:22.793Z,1.77
2023-01-21T18:38:51.105Z,1.80
2023-01-21T18:41:19.413Z,2.33
2023-01-21T18:43:47.776Z,2.05
2023-01-21T18:46:17.194Z,1.88
2023-01-21T18:48:45.706Z,1.90
2023-01-21T18:51:15.367Z,1.92
2023-01-21T18:53:43.833Z,2.10
2023-01-21T18:56:15.333Z,2.70
2023-01-21T18:58:43.982Z,2.60
2023-01-21T19:01:22.708Z,2.60
2023-01-21T19:03:56.184Z,2.35
2023-01-21T19:06:25.944Z,2.30
2023-01-21T19:08:55.799Z,2.30
2023-01-21T19:11:24.143Z,2.40
2023-01-21T19:13:52.649Z,2.35
2023-01-21T19:16:22.758Z,2.13
2023-01-21T19:18:51.184Z,2.28
2023-01-21T19:21:19.534Z,2.08
2023-01-21T19:23:47.850Z,2.50
2023-01-21T19:26:16.847Z,2.22
2023-01-21T19:28:45.194Z,2.10
2023-01-21T19:31:13.610Z,2.60
2023-01-21T19:33:43.708Z,2.75
2023-01-21T19:36:17.419Z,2.50
2023-01-21T19:38:54.688Z,2.60
2023-01-21T19:41:23.370Z,2.45
2023-01-21T19:43:52.000Z,2.90
2023-01-21T19:46:20.686Z,2.72
2023-01-21T19:48:51.150Z,2.58
2023-01-21T19:51:19.545Z,2.60
2023-01-21T19:53:47.945Z,2.75
2023-01-21T19:56:23.370Z,2.47
2023-01-21T19:58:52.140Z,2.65
2023-01-21T20:01:20.467Z,2.47
2023-01-21T20:03:59.584Z,2.20
2023-01-21T20:06:31.251Z,2.53
2023-01-21T20:09:01.788Z,2.40
2023-01-21T20:11:30.088Z,2.40
2023-01-21T20:13:58.394Z,2.60
2023-01-21T20:16:27.708Z,2.40
2023-01-21T20:18:57.071Z,1.85
2023-01-21T20:21:25.420Z,1.88
2023-01-21T20:23:53.770Z,2.10
2023-01-21T20:26:27.248Z,1.92
2023-01-21T20:28:55.777Z,1.95
2023-01-21T20:31:24.276Z,1.80
2023-01-21T20:33:52.670Z,1.80
2023-01-21T20:36:23.960Z,1.60
2023-01-21T20:38:53.912Z,1.70
2023-01-21T20:41:22.592Z,1.42
2023-01-21T20:43:51.094Z,1.30
2023-01-21T20:46:26.565Z,1.40
2023-01-21T20:48:55.271Z,1.27
2023-01-21T20:51:23.810Z,1.30
2023-01-21T20:53:52.680Z,1.20
2023-01-21T20:56:31.314Z,1.50
2023-01-21T20:58:59.803Z,1.10
2023-01-21T21:01:29.415Z,1.30
2023-01-21T21:03:57.719Z,1.33
2023-01-21T21:06:30.034Z,1.30
2023-01-21T21:08:58.744Z,1.38
2023-01-21T21:11:27.171Z,1.30
2023-01-21T21:13:55.569Z,1.23
2023-01-21T21:16:28.638Z,1.23
2023-01-21T21:18:57.693Z,1.35
2023-01-21T21:21:26.003Z,1.35
2023-01-21T21:23:54.460Z,1.42
2023-01-21T21:26:27.861Z,1.30
2023-01-21T21:28:58.204Z,1.20
2023-01-21T21:31:32.742Z,1.30
2023-01-21T21:36:29.185Z,1.20
2023-01-21T21:38:57.543Z,0.95
2023-01-21T21:41:45.914Z,1.15
2023-01-21T21:44:14.771Z,0.80
2023-01-21T21:47:01.470Z,1.08
2023-01-21T21:49:30.667Z,0.95
2023-01-21T21:52:01.025Z,0.77
2023-01-21T21:54:29.352Z,0.90
2023-01-21T21:56:57.791Z,1.00
2023-01-21T21:59:26.173Z,0.90
2023-01-21T22:01:54.495Z,1.30
2023-01-21T22:04:23.898Z,0.98
2023-01-21T22:06:52.260Z,1.30
2023-01-21T22:09:20.781Z,1.42
2023-01-21T22:11:49.065Z,1.00
2023-01-21T22:14:17.489Z,1.13
2023-01-21T22:16:46.295Z,1.10
2023-01-21T22:19:14.655Z,0.95
2023-01-21T22:21:43.745Z,0.93
2023-01-21T22:24:12.193Z,1.20
2023-01-21T22:26:40.507Z,1.20
2023-01-21T22:29:08.884Z,1.38
2023-01-21T22:31:37.422Z,1.10
2023-01-21T22:34:06.214Z,1.13
2023-01-21T22:36:34.532Z,1.20
2023-01-21T22:39:03.015Z,1.20
2023-01-21T22:41:31.573Z,1.15
2023-01-21T22:43:59.897Z,1.20
2023-01-21T22:46:34.606Z,1.08
2023-01-21T22:49:02.975Z,1.30
2023-01-21T22:51:31.385Z,1.00
2023-01-21T22:54:02.252Z,1.38
2023-01-21T22:56:52.284Z,1.15
2023-01-21T22:59:18.833Z,1.00
2023-01-21T23:01:49.396Z,1.00
2023-01-21T23:04:18.627Z,1.20
2023-01-21T23:06:49.485Z,1.27
2023-01-21T23:09:17.857Z,1.00
2023-01-21T23:11:46.498Z,1.23
2023-01-21T23:14:14.856Z,1.15
2023-01-21T23:16:43.183Z,1.40
2023-01-21T23:19:12.556Z,1.40
2023-01-21T23:21:40.903Z,1.40
2023-01-21T23:24:09.525Z,1.30
2023-01-21T23:26:38.417Z,1.25
2023-01-21T23:29:06.684Z,1.55
2023-01-21T23:31:36.172Z,1.30
2023-01-21T23:34:04.723Z,1.13
2023-01-21T23:36:33.049Z,1.25
2023-01-21T23:39:01.344Z,1.20
2023-01-21T23:41:29.673Z,0.98
2023-01-21T23:44:02.129Z,0.90
2023-01-21T23:46:30.975Z,1.00
2023-01-21T23:48:59.405Z,0.90
2023-01-21T23:51:27.720Z,0.80
2023-01-21T23:53:57.740Z,1.25
2023-01-21T23:56:27.425Z,0.90
2023-01-21T23:58:56.280Z,1.10
